Аэропорт: Храброво. Калининград

ICAO: UMKK

METAR:
2018/07/16 19:30
UMKK 161930Z 35002MPS 9999 SCT035 20/18 Q1010 R24/29//60 NOSIG RMK QFE756/1008
METAR:
2018/07/16 18:57
TAF UMKK 161700Z 1618/1718 03003G08MPS 9999 BKN015CB 
      TEMPO 1618/1621 35003G08MPS 3100 -TSRA BKN011 BKN015CB 
      TEMPO 1709/1718 3100 -SHRA BKN011 BKN020CB 
      BECMG 1712/1714 33005MPS